createdAt,value
2019-04-11T00:01:48.139Z,100497.31
2019-04-11T00:04:15.716Z,100494.09
2019-04-11T00:06:44.225Z,100493.91
2019-04-11T00:09:14.531Z,100501.07
2019-04-11T00:11:44.109Z,100499.37
2019-04-11T00:14:13.858Z,100498.50
2019-04-11T00:16:43.474Z,100493.91
2019-04-11T00:19:12.271Z,100502.09
2019-04-11T00:21:41.350Z,100501.89
2019-04-11T00:24:10.407Z,100504.98
2019-04-11T00:26:40.253Z,100500.52
2019-04-11T00:29:08.768Z,100505.15
2019-04-11T00:31:37.181Z,100508.04
2019-04-11T00:34:06.844Z,100517.59
2019-04-11T00:36:35.336Z,100513.12
2019-04-11T00:39:05.778Z,100518.79
2019-04-11T00:41:34.379Z,100515.85
2019-04-11T00:44:03.808Z,100516.88
2019-04-11T00:46:32.242Z,100516.88
2019-04-11T00:49:01.888Z,100512.79
2019-04-11T00:51:30.432Z,100521.13
2019-04-11T00:53:58.853Z,100516.55
2019-04-11T00:56:28.349Z,100519.27
2019-04-11T00:58:58.196Z,100519.77
2019-04-11T01:01:28.023Z,100516.00
2019-04-11T01:03:56.617Z,100519.23
2019-04-11T01:06:25.872Z,100520.09
2019-04-11T01:08:54.346Z,100516.34
2019-04-11T01:11:23.788Z,100516.34
2019-04-11T01:13:55.294Z,100519.06
2019-04-11T01:16:26.873Z,100510.20
2019-04-11T01:18:55.292Z,100520.09
2019-04-11T01:21:24.288Z,100516.50
2019-04-11T01:23:53.422Z,100514.46
2019-04-11T01:26:21.929Z,100518.55
2019-04-11T01:28:51.987Z,100515.95
2019-04-11T01:31:25.284Z,100517.84
2019-04-11T01:33:53.934Z,100521.94
2019-04-11T01:36:22.722Z,100525.66
2019-04-11T01:38:56.819Z,100521.73
2019-04-11T01:41:25.309Z,100527.72
2019-04-11T01:44:00.968Z,100528.21
2019-04-11T01:46:24.391Z,100530.60
2019-04-11T01:48:55.517Z,100534.32
2019-04-11T01:51:25.362Z,100531.26
2019-04-11T01:53:53.870Z,100526.30
2019-04-11T01:56:23.189Z,100529.40
2019-04-11T01:58:51.679Z,100527.66
2019-04-11T02:01:30.624Z,100532.95
2019-04-11T02:04:16.046Z,100537.58
2019-04-11T02:06:45.784Z,100532.78
2019-04-11T02:09:15.858Z,100540.09
2019-04-11T02:11:44.335Z,100540.47
2019-04-11T02:14:16.474Z,100543.36
2019-04-11T02:16:43.346Z,100545.22
2019-04-11T02:19:12.136Z,100549.30
2019-04-11T02:21:42.037Z,100540.25
2019-04-11T02:24:15.311Z,100545.37
2019-04-11T02:26:46.802Z,100550.17
2019-04-11T02:29:15.478Z,100546.58
2019-04-11T02:31:44.556Z,100551.16
2019-04-11T02:34:14.041Z,100555.78
2019-04-11T02:36:44.965Z,100549.95
2019-04-11T02:39:17.630Z,100550.62
2019-04-11T02:41:44.530Z,100550.98
2019-04-11T02:44:33.728Z,100558.27
2019-04-11T02:46:55.847Z,100555.70
2019-04-11T02:49:14.983Z,100558.09
2019-04-11T02:51:45.020Z,100560.32
2019-04-11T02:54:15.740Z,100560.81
2019-04-11T02:56:45.568Z,100562.67
2019-04-11T02:59:15.444Z,100565.56
2019-04-11T03:01:44.081Z,100568.28
2019-04-11T03:04:12.973Z,100566.22
2019-04-11T03:06:41.802Z,100566.92
2019-04-11T03:09:10.963Z,100571.33
2019-04-11T03:11:40.875Z,100569.63
2019-04-11T03:14:10.372Z,100565.54
2019-04-11T03:16:53.034Z,100568.42
2019-04-11T03:19:25.087Z,100569.78
2019-04-11T03:21:43.622Z,100571.16
2019-04-11T03:24:11.260Z,100573.72
2019-04-11T03:26:41.318Z,100575.73
2019-04-11T03:29:11.187Z,100579.83
2019-04-11T03:39:32.655Z,100585.77
2019-04-11T03:41:59.632Z,100590.89
2019-04-11T03:44:22.993Z,100593.61
2019-04-11T03:47:01.274Z,100586.95
2019-04-11T03:49:24.980Z,100589.69
2019-04-11T03:51:45.998Z,100594.11
2019-04-11T03:54:15.701Z,100589.69
2019-04-11T03:56:45.750Z,100600.09
2019-04-11T03:59:16.616Z,100597.52
2019-04-11T04:01:46.581Z,100601.09
2019-04-11T04:04:17.217Z,100601.95
2019-04-11T04:06:46.254Z,100603.81
2019-04-11T04:09:17.102Z,100600.41
2019-04-11T04:11:49.342Z,100609.42
2019-04-11T04:14:37.201Z,100613.17
2019-04-11T04:17:17.522Z,100609.58
2019-04-11T04:19:59.406Z,100612.30
2019-04-11T04:22:32.925Z,100618.47
2019-04-11T04:25:03.769Z,100629.03
2019-04-11T04:27:32.687Z,100626.80
2019-04-11T04:30:04.631Z,100630.55
2019-04-11T04:32:32.939Z,100634.98
2019-04-11T04:35:01.853Z,100633.62
2019-04-11T04:37:34.073Z,100636.00
2019-04-11T04:40:24.019Z,100637.37
2019-04-11T04:42:40.251Z,100635.79
2019-04-11T04:45:07.414Z,100646.69
2019-04-11T04:47:42.803Z,100653.02
2019-04-11T04:50:08.810Z,100653.35
2019-04-11T04:52:38.222Z,100650.13
2019-04-11T04:55:08.585Z,100653.02
2019-04-11T04:57:37.623Z,100651.83
2019-04-11T05:00:09.253Z,100657.81
2019-04-11T05:02:39.650Z,100656.08
2019-04-11T05:05:09.467Z,100664.26
2019-04-11T05:07:40.842Z,100665.62
2019-04-11T05:10:11.250Z,100664.63
2019-04-11T05:12:39.763Z,100669.22
2019-04-11T05:15:10.041Z,100665.28
2019-04-11T05:17:38.749Z,100670.58
2019-04-11T05:20:09.190Z,100672.44
2019-04-11T05:22:37.665Z,100672.44
2019-04-11T05:25:06.743Z,100676.03
2019-04-11T05:27:35.732Z,100683.19
2019-04-11T05:30:05.097Z,100690.87
2019-04-11T05:32:33.587Z,100686.78
2019-04-11T05:35:02.856Z,100683.19
2019-04-11T05:37:31.400Z,100697.20
2019-04-11T05:40:00.806Z,100692.58
2019-04-11T05:42:29.403Z,100694.16
2019-04-11T05:44:59.038Z,100701.80
2019-04-11T05:47:27.677Z,100703.55
2019-04-11T05:49:58.901Z,100713.61
2019-04-11T05:52:30.522Z,100708.72
2019-04-11T05:54:59.185Z,100703.48
2019-04-11T05:57:34.011Z,100708.51
2019-04-11T05:59:59.225Z,100709.74
2019-04-11T06:02:33.106Z,100706.05
2019-04-11T06:05:03.573Z,100712.41
2019-04-11T06:07:48.830Z,100709.91
2019-04-11T06:10:30.314Z,100720.70
2019-04-11T06:13:04.567Z,100710.18
2019-04-11T06:15:51.284Z,100720.47
2019-04-11T06:18:29.332Z,100716.77
2019-04-11T06:20:53.672Z,100717.81
2019-04-11T06:23:23.923Z,100718.15
2019-04-11T06:26:06.804Z,100724.66
2019-04-11T06:28:36.198Z,100729.48
2019-04-11T06:31:18.241Z,100725.45
2019-04-11T06:33:49.071Z,100731.33
2019-04-11T06:36:31.984Z,100731.93
2019-04-11T06:39:05.299Z,100735.75
2019-04-11T06:41:51.654Z,100742.82
2019-04-11T06:44:37.916Z,100739.98
2019-04-11T06:47:08.297Z,100733.89
2019-04-11T06:49:41.262Z,100743.18
2019-04-11T06:52:11.314Z,100746.83
2019-04-11T06:54:41.493Z,100749.95
2019-04-11T06:57:11.830Z,100754.47
2019-04-11T06:59:42.953Z,100750.58
2019-04-11T07:02:18.058Z,100747.05
2019-04-11T07:04:47.559Z,100748.28
2019-04-11T07:07:16.422Z,100748.66
2019-04-11T07:09:49.595Z,100746.78
2019-04-11T07:12:22.606Z,100750.91
2019-04-11T07:14:58.434Z,100745.80
2019-04-11T07:17:44.431Z,100744.48
2019-04-11T07:20:31.413Z,100749.64
2019-04-11T07:23:18.050Z,100752.36
2019-04-11T07:25:53.999Z,100750.66
2019-04-11T07:28:27.340Z,100752.05
2019-04-11T07:31:10.556Z,100752.92
2019-04-11T07:33:56.533Z,100753.06
2019-04-11T07:36:43.985Z,100757.70
2019-04-11T07:39:14.650Z,100754.94
2019-04-11T07:41:45.556Z,100756.31
2019-04-11T07:44:19.622Z,100760.29
2019-04-11T07:46:53.619Z,100760.97
2019-04-11T07:49:32.873Z,100764.40
2019-04-11T07:52:03.077Z,100763.01
2019-04-11T07:54:31.514Z,100762.84
2019-04-11T07:57:04.851Z,100760.94
2019-04-11T07:59:37.675Z,100760.41
2019-04-11T08:02:24.369Z,100764.36
2019-04-11T08:05:11.086Z,100765.20
2019-04-11T08:07:44.821Z,100756.45
2019-04-11T08:10:33.285Z,100766.72
2019-04-11T08:13:10.180Z,100772.00
2019-04-11T08:15:43.945Z,100779.52
2019-04-11T08:18:20.803Z,100773.36
2019-04-11T08:20:50.934Z,100777.77
2019-04-11T08:23:21.370Z,100778.64
2019-04-11T08:26:07.810Z,100770.74
2019-04-11T08:28:37.280Z,100771.77
2019-04-11T08:31:24.374Z,100769.31
2019-04-11T08:33:55.119Z,100781.99
2019-04-11T08:36:42.074Z,100774.77
2019-04-11T08:39:13.001Z,100773.69
2019-04-11T08:42:03.217Z,100778.13
2019-04-11T08:44:32.119Z,100775.35
2019-04-11T08:47:02.557Z,100765.05
2019-04-11T08:49:33.846Z,100779.61
2019-04-11T08:52:05.521Z,100782.14
2019-04-11T08:54:44.275Z,100778.00
2019-04-11T08:57:13.745Z,100777.59
2019-04-11T09:00:00.282Z,100781.53
2019-04-11T09:02:31.063Z,100777.55
2019-04-11T09:05:06.925Z,100776.67
2019-04-11T09:07:33.778Z,100776.63
2019-04-11T09:10:20.154Z,100781.20
2019-04-11T09:13:07.035Z,100772.91
2019-04-11T09:15:53.949Z,100776.45
2019-04-11T09:18:22.316Z,100769.72
2019-04-11T09:21:02.264Z,100777.91
2019-04-11T09:23:30.739Z,100775.30
2019-04-11T09:26:01.568Z,100776.95
2019-04-11T09:28:31.924Z,100773.70
2019-04-11T09:31:03.313Z,100778.31
2019-04-11T09:33:51.407Z,100783.25
2019-04-11T09:36:36.936Z,100783.25
2019-04-11T09:39:24.748Z,100780.07
2019-04-11T09:42:13.449Z,100774.55
2019-04-11T09:44:49.472Z,100774.49
2019-04-11T09:47:26.285Z,100779.52
2019-04-11T09:50:11.873Z,100776.09
2019-04-11T09:52:54.556Z,100777.22
2019-04-11T09:55:29.093Z,100775.19
2019-04-11T09:58:00.136Z,100787.64
2019-04-11T10:00:43.090Z,100780.54
2019-04-11T10:03:13.318Z,100774.27
2019-04-11T10:05:46.764Z,100775.73
2019-04-11T10:08:37.196Z,100777.31
2019-04-11T10:11:10.337Z,100775.58
2019-04-11T10:13:43.199Z,100771.84
2019-04-11T10:16:22.225Z,100781.30
2019-04-11T10:18:55.674Z,100787.30
2019-04-11T10:21:26.019Z,100776.50
2019-04-11T10:23:56.790Z,100779.45
2019-04-11T10:26:27.798Z,100778.84
2019-04-11T10:29:09.949Z,100779.60
2019-04-11T10:31:46.460Z,100777.45
2019-04-11T10:34:17.540Z,100774.82
2019-04-11T10:36:47.641Z,100770.66
2019-04-11T10:39:23.508Z,100767.63
2019-04-11T10:41:53.847Z,100766.21
2019-04-11T10:44:23.918Z,100765.78
2019-04-11T10:46:53.966Z,100771.30
2019-04-11T10:49:40.095Z,100769.72
2019-04-11T10:52:18.982Z,100768.73
2019-04-11T10:54:49.204Z,100768.61
2019-04-11T10:57:34.566Z,100774.72
2019-04-11T11:00:05.160Z,100768.86
2019-04-11T11:02:51.670Z,100769.13
2019-04-11T11:05:22.179Z,100768.63
2019-04-11T11:07:52.826Z,100771.89
2019-04-11T11:10:23.702Z,100773.03
2019-04-11T11:12:53.853Z,100765.46
2019-04-11T11:15:27.493Z,100777.75
2019-04-11T11:18:35.095Z,100768.34
2019-04-11T11:20:48.363Z,100771.88
2019-04-11T11:23:29.260Z,100772.67
2019-04-11T11:26:14.549Z,100774.67
2019-04-11T11:28:56.960Z,100765.73
2019-04-11T11:31:42.796Z,100772.31
2019-04-11T11:34:17.332Z,100776.16
2019-04-11T11:36:54.924Z,100782.58
2019-04-11T11:39:28.038Z,100772.41
2019-04-11T11:42:14.460Z,100769.23
2019-04-11T11:44:53.513Z,100781.55
2019-04-11T11:47:41.681Z,100771.95
2019-04-11T11:50:23.677Z,100778.79
2019-04-11T11:52:53.518Z,100774.91
2019-04-11T11:55:29.441Z,100770.27
2019-04-11T11:58:06.869Z,100778.19
2019-04-11T12:00:36.703Z,100775.13
2019-04-11T12:03:28.376Z,100772.30
2019-04-11T12:05:57.098Z,100773.27
2019-04-11T12:08:47.476Z,100782.73
2019-04-11T12:11:15.671Z,100770.84
2019-04-11T12:14:02.062Z,100771.24
2019-04-11T12:16:39.631Z,100763.77
2019-04-11T12:19:18.008Z,100763.81
2019-04-11T12:21:48.934Z,100768.22
2019-04-11T12:24:20.869Z,100768.42
2019-04-11T12:27:10.219Z,100762.31
2019-04-11T12:29:55.051Z,100763.81
2019-04-11T12:32:25.297Z,100759.36
2019-04-11T12:35:04.372Z,100766.84
2019-04-11T12:37:35.788Z,100766.91
2019-04-11T12:40:23.824Z,100763.66
2019-04-11T12:42:52.266Z,100756.91
2019-04-11T12:45:28.487Z,100753.72
2019-04-11T12:47:57.084Z,100751.09
2019-04-11T12:50:43.635Z,100755.42
2019-04-11T12:53:12.189Z,100752.47
2019-04-11T12:55:47.934Z,100755.03
2019-04-11T12:58:20.998Z,100751.16
2019-04-11T13:00:51.043Z,100740.47
2019-04-11T13:03:24.248Z,100742.83
2019-04-11T13:06:09.565Z,100743.08
2019-04-11T13:08:42.165Z,100728.61
2019-04-11T13:11:12.324Z,100732.38
2019-04-11T13:13:51.635Z,100733.69
2019-04-11T13:16:20.122Z,100735.42
2019-04-11T13:18:50.213Z,100728.99
2019-04-11T13:21:26.534Z,100730.34
2019-04-11T13:23:56.653Z,100737.49
2019-04-11T13:26:43.165Z,100725.52
2019-04-11T13:29:22.141Z,100727.49
2019-04-11T13:31:55.173Z,100726.74
2019-04-11T13:34:25.243Z,100732.92
2019-04-11T13:37:10.335Z,100729.70
2019-04-11T13:39:38.783Z,100730.30
2019-04-11T13:42:23.831Z,100724.67
2019-04-11T13:44:52.280Z,100728.60
2019-04-11T13:47:22.394Z,100717.81
2019-04-11T13:49:52.475Z,100715.61
2019-04-11T13:52:41.218Z,100712.53
2019-04-11T13:55:11.577Z,100714.97
2019-04-11T13:57:57.828Z,100714.46
2019-04-11T14:00:46.614Z,100711.39
2019-04-11T14:03:19.694Z,100715.34
2019-04-11T14:05:49.854Z,100718.27
2019-04-11T14:08:19.892Z,100715.88
2019-04-11T14:10:49.972Z,100714.52
2019-04-11T14:13:18.670Z,100705.45
2019-04-11T14:15:48.836Z,100706.85
2019-04-11T14:18:27.823Z,100698.97
2019-04-11T14:21:03.762Z,100695.52
2019-04-11T14:23:45.816Z,100697.58
2019-04-11T14:26:16.244Z,100698.11
2019-04-11T14:28:46.299Z,100692.11
2019-04-11T14:31:16.387Z,100692.46
2019-04-11T14:33:55.539Z,100690.41
2019-04-11T14:36:33.552Z,100697.27
2019-04-11T14:39:01.986Z,100697.62
2019-04-11T14:41:34.488Z,100696.06
2019-04-11T14:44:04.752Z,100690.25
2019-04-11T14:46:37.694Z,100698.31
2019-04-11T14:49:10.164Z,100700.69
2019-04-11T14:51:41.370Z,100695.55
2019-04-11T14:54:17.045Z,100701.53
2019-04-11T14:56:58.277Z,100698.97
2019-04-11T14:59:46.666Z,100697.97
2019-04-11T15:02:16.740Z,100689.56
2019-04-11T15:04:46.817Z,100697.62
2019-04-11T15:07:17.017Z,100695.92
2019-04-11T15:09:59.173Z,100692.66
2019-04-11T15:12:31.891Z,100694.87
2019-04-11T15:15:07.774Z,100695.58
2019-04-11T15:17:37.836Z,100694.21
2019-04-11T15:20:14.290Z,100691.11
2019-04-11T15:22:59.763Z,100696.94
2019-04-11T15:25:29.858Z,100689.06
2019-04-11T15:27:59.906Z,100695.58
2019-04-11T15:30:49.429Z,100691.47
2019-04-11T15:33:34.040Z,100689.73
2019-04-11T15:36:04.128Z,100688.54
2019-04-11T15:38:43.395Z,100686.51
2019-04-11T15:41:12.561Z,100688.55
2019-04-11T15:43:59.177Z,100688.72
2019-04-11T15:46:29.363Z,100688.72
2019-04-11T15:49:05.686Z,100692.50
2019-04-11T15:51:38.651Z,100693.50
2019-04-11T15:54:14.336Z,100685.13
2019-04-11T15:56:56.727Z,100682.56
2019-04-11T15:59:38.907Z,100698.63
2019-04-11T16:02:26.879Z,100697.25
2019-04-11T16:05:02.042Z,100693.15
2019-04-11T16:07:38.268Z,100691.08
2019-04-11T16:10:11.693Z,100699.63
2019-04-11T16:12:46.624Z,100703.20
2019-04-11T16:15:18.765Z,100699.27
2019-04-11T16:17:51.832Z,100699.44
2019-04-11T16:20:20.556Z,100702.02
2019-04-11T16:23:02.945Z,100702.17
2019-04-11T16:25:31.358Z,100694.47
2019-04-11T16:28:17.585Z,100691.08
2019-04-11T16:30:47.649Z,100703.02
2019-04-11T16:33:20.685Z,100693.95
2019-04-11T16:35:56.954Z,100699.95
2019-04-11T16:38:25.223Z,100704.90
2019-04-11T16:41:11.745Z,100703.37
2019-04-11T16:43:41.813Z,100694.46
2019-04-11T16:46:28.359Z,100698.73
2019-04-11T16:48:56.777Z,100702.67
2019-04-11T16:51:30.764Z,100705.41
2019-04-11T16:53:55.354Z,100704.38
2019-04-11T16:56:23.963Z,100706.59
2019-04-11T16:58:52.371Z,100711.03
2019-04-11T17:01:23.078Z,100707.76
2019-04-11T17:03:54.830Z,100712.03
2019-04-11T17:06:25.938Z,100717.33
2019-04-11T17:08:57.004Z,100726.70
2019-04-11T17:11:27.036Z,100730.64
2019-04-11T17:13:57.357Z,100728.57
2019-04-11T17:16:29.967Z,100723.94
2019-04-11T17:18:56.135Z,100724.10
2019-04-11T17:21:24.567Z,100735.04
2019-04-11T17:23:53.031Z,100735.54
2019-04-11T17:26:23.165Z,100739.47
2019-04-11T17:28:53.645Z,100740.14
2019-04-11T17:31:25.744Z,100742.53
2019-04-11T17:33:51.962Z,100746.97
2019-04-11T17:36:20.405Z,100744.90
2019-04-11T17:38:48.898Z,100740.09
2019-04-11T17:41:17.324Z,100746.23
2019-04-11T17:43:47.320Z,100754.06
2019-04-11T17:46:15.989Z,100759.36
2019-04-11T17:48:44.398Z,100754.05
2019-04-11T17:51:12.866Z,100761.55
2019-04-11T17:53:41.251Z,100764.61
2019-04-11T17:56:09.787Z,100767.01
2019-04-11T17:58:38.245Z,100765.27
2019-04-11T18:01:07.200Z,100771.59
2019-04-11T18:03:35.678Z,100764.39
2019-04-11T18:06:04.303Z,100763.72
2019-04-11T18:08:32.754Z,100774.81
2019-04-11T18:11:01.238Z,100779.91
2019-04-11T18:13:31.538Z,100781.28
2019-04-11T18:16:01.164Z,100789.84
2019-04-11T18:18:29.971Z,100790.52
2019-04-11T18:20:58.387Z,100789.52
2019-04-11T18:23:26.843Z,100792.75
2019-04-11T18:25:55.281Z,100795.48
2019-04-11T18:28:23.769Z,100795.65
2019-04-11T18:30:54.012Z,100798.20
2019-04-11T18:33:22.386Z,100802.09
2019-04-11T18:35:50.810Z,100801.42
2019-04-11T18:38:19.277Z,100806.52
2019-04-11T18:40:47.721Z,100805.69
2019-04-11T18:43:16.905Z,100807.21
2019-04-11T18:45:45.458Z,100815.70
2019-04-11T18:48:13.852Z,100817.06
2019-04-11T18:50:42.280Z,100817.23
2019-04-11T18:53:10.741Z,100820.98
2019-04-11T18:55:39.146Z,100830.71
2019-04-11T18:58:07.588Z,100830.37
2019-04-11T19:00:38.323Z,100834.09
2019-04-11T19:03:08.023Z,100837.86
2019-04-11T19:05:37.271Z,100842.98
2019-04-11T19:08:05.782Z,100838.52
2019-04-11T19:10:34.226Z,100849.11
2019-04-11T19:13:02.721Z,100843.64
2019-04-11T19:15:31.271Z,100852.00
2019-04-11T19:18:06.225Z,100855.76
2019-04-11T19:20:29.956Z,100856.25
2019-04-11T19:22:58.392Z,100861.72
2019-04-11T19:25:26.852Z,100854.71
2019-04-11T19:27:57.219Z,100862.91
2019-04-11T19:30:26.396Z,100858.93
2019-04-11T19:32:55.521Z,100858.25
2019-04-11T19:35:24.125Z,100863.34
2019-04-11T19:37:52.591Z,100868.16
2019-04-11T19:40:21.159Z,100861.82
2019-04-11T19:42:49.849Z,100864.40
2019-04-11T19:45:19.525Z,100860.30
2019-04-11T19:47:51.698Z,100857.57
2019-04-11T19:50:18.780Z,100852.63
2019-04-11T19:52:47.231Z,100861.66
2019-04-11T19:55:34.696Z,100858.93
2019-04-11T19:58:03.734Z,100862.53
2019-04-11T20:00:32.185Z,100866.47
2019-04-11T20:03:00.614Z,100865.27
2019-04-11T20:05:29.041Z,100860.30
2019-04-11T20:07:57.503Z,100865.42
2019-04-11T20:10:25.983Z,100860.83
2019-04-11T20:12:54.436Z,100861.82
2019-04-11T20:15:22.939Z,100863.56
2019-04-11T20:17:52.213Z,100863.03
2019-04-11T20:20:20.644Z,100860.30
2019-04-11T20:22:58.725Z,100860.30
2019-04-11T20:25:19.238Z,100863.41
2019-04-11T20:27:48.094Z,100864.11
2019-04-11T20:30:17.896Z,100860.52
2019-04-11T20:32:46.300Z,100857.78
2019-04-11T20:35:14.738Z,100864.27
2019-04-11T20:37:44.728Z,100857.57
2019-04-11T20:40:17.354Z,100860.83
2019-04-11T20:42:43.833Z,100868.86
2019-04-11T20:45:12.536Z,100869.52
2019-04-11T20:47:40.946Z,100865.92
2019-04-11T20:50:10.392Z,100868.16
2019-04-11T20:52:38.840Z,100869.86
2019-04-11T20:55:09.189Z,100876.69
2019-04-11T20:57:40.432Z,100877.55
2019-04-11T21:00:12.054Z,100872.09
2019-04-11T21:02:39.464Z,100874.83
2019-04-11T21:05:08.136Z,100876.69
2019-04-11T21:07:39.062Z,100884.89
2019-04-11T21:10:07.147Z,100880.94
2019-04-11T21:12:37.305Z,100880.66
2019-04-11T21:15:07.591Z,100885.97
2019-04-11T21:17:36.013Z,100887.17
2019-04-11T21:20:07.425Z,100886.62
2019-04-11T21:22:35.844Z,100885.41
2019-04-11T21:25:05.328Z,100886.25
2019-04-11T21:27:33.754Z,100884.23
2019-04-11T21:30:02.309Z,100882.86
2019-04-11T21:32:31.856Z,100887.33
2019-04-11T21:35:02.401Z,100890.56
2019-04-11T21:37:31.207Z,100893.63
2019-04-11T21:39:59.659Z,100899.09
2019-04-11T21:42:28.113Z,100899.25
2019-04-11T21:44:56.538Z,100907.66
2019-04-11T21:47:24.971Z,100910.02
2019-04-11T21:49:53.421Z,100914.28
2019-04-11T21:52:21.859Z,100914.28
2019-04-11T21:54:50.287Z,100916.30
2019-04-11T21:57:19.270Z,100911.15
2019-04-11T21:59:51.300Z,100923.81
2019-04-11T22:02:18.560Z,100917.33
2019-04-11T22:04:46.993Z,100922.63
2019-04-11T22:07:15.425Z,100925.36
2019-04-11T22:09:43.853Z,100932.69
2019-04-11T22:12:12.276Z,100933.38
2019-04-11T22:14:41.964Z,100933.38
2019-04-11T22:17:15.164Z,100932.69
2019-04-11T22:19:45.339Z,100933.38
2019-04-11T22:22:11.357Z,100936.61
2019-04-11T22:24:39.805Z,100933.00
2019-04-11T22:27:08.242Z,100937.48
2019-04-11T22:29:36.676Z,100941.41
2019-04-11T22:32:05.147Z,100942.66
2019-04-11T22:34:35.226Z,100944.39
2019-04-11T22:37:03.935Z,100949.33
2019-04-11T22:39:32.332Z,100951.22
2019-04-11T22:42:00.765Z,100955.97
2019-04-11T22:44:29.203Z,100957.65
2019-04-11T22:46:57.607Z,100961.03
2019-04-11T22:49:26.055Z,100962.71
2019-04-11T22:51:54.467Z,100961.50
2019-04-11T22:54:22.906Z,100958.27
2019-04-11T22:56:51.315Z,100962.71
2019-04-11T22:59:19.752Z,100961.16
2019-04-11T23:01:48.868Z,100962.31
2019-04-11T23:04:17.649Z,100959.23
2019-04-11T23:06:47.276Z,100959.36
2019-04-11T23:09:16.653Z,100963.73
2019-04-11T23:11:46.355Z,100963.39
2019-04-11T23:14:15.962Z,100968.30
2019-04-11T23:16:45.105Z,100972.55
2019-04-11T23:19:14.423Z,100970.09
2019-04-11T23:21:42.835Z,100972.98
2019-04-11T23:24:12.148Z,100968.20
2019-04-11T23:26:40.795Z,100974.30
2019-04-11T23:29:09.232Z,100973.59
2019-04-11T23:31:37.721Z,100972.37
2019-04-11T23:34:06.218Z,100968.44
2019-04-11T23:36:34.637Z,100969.46
2019-04-11T23:39:04.731Z,100971.47
2019-04-11T23:41:33.147Z,100974.02
2019-04-11T23:44:01.605Z,100973.64
2019-04-11T23:46:30.025Z,100971.59
2019-04-11T23:48:58.441Z,100973.45
2019-04-11T23:51:26.895Z,100974.48
2019-04-11T23:53:59.027Z,100971.37
2019-04-11T23:56:25.443Z,100965.56
2019-04-11T23:58:53.877Z,100969.66
